Island Princess — ZCDG4 — position and weather

sailwx.info

Track history (hours):
 
Tides and Currents Weather Stations Pressure Air Temp Water Temp Dewpoint Dewpoint Depression Visibility Wind Speed Wind Dir Waves Ship Positions

Island Princess

Operator: Princess Cruises

Last reported at 2020-Apr-01 23:00 UTC. Time now 2020-Apr-01 23:11 UTC.
Position N 26°03' W 079°58'.

Type: Passenger vessel. MMSI: 310384000.

Date/timePositionNaut miles runAvg speedWind from/ knotsBaromVisibWave heightAir tempDewpointWater temp
2020-Apr-01 23:00N 26°03' W 079°58'510.2
2020-Apr-01 22:30N 26°04' W 080°03'4 4.0
2020-Apr-01 21:30N 26°06' W 080°07'0 1.1
2020-Apr-01 21:28N 26°06' W 080°07'0 0.1
2020-Apr-01 21:00N 26°06' W 080°07'0 0.0
2020-Apr-01 18:27N 26°06' W 080°07'0 0.0
2020-Apr-01 18:00N 26°06' W 080°07'0 0.0
2020-Apr-01 17:00N 26°06' W 080°07'0 0.0
2020-Apr-01 16:27N 26°06' W 080°07'23 3.9
2020-Apr-01 10:30N 25°48' W 079°51'2911.7
2020-Apr-01 08:00N 25°19' W 079°48'63 2.2
2020-Mar-31 03:21N 26°06' W 079°02'  
2020-Mar-28 12:30N 26°44' W 079°29'5 8.4
2020-Mar-28 11:58N 26°48' W 079°30'6 8.3
2020-Mar-28 11:14N 26°54' W 079°31'22 8.1
2020-Mar-28 08:30N 27°16' W 079°32'17 8.3
2020-Mar-28 06:30N 27°33' W 079°27'6 9.6
2020-Mar-28 05:50N 27°38' W 079°23'85 5.2
2020-Mar-27 13:25N 26°13' W 079°16'14 0.5
2020-Mar-26 10:57N 26°06' W 079°03'0 0.0
2020-Mar-26 09:45N 26°06' W 079°03'0 0.0
2020-Mar-26 09:27N 26°06' W 079°03'  
Track history (hours):
 
Tides and Currents Weather Stations Pressure Air Temp Water Temp Dewpoint Dewpoint Depression Visibility Wind Speed Wind Dir Waves Ship Positions

Island Princess

Operator: Princess Cruises

Last reported at 2020-Apr-01 23:00 UTC. Time now 2020-Apr-01 23:11 UTC.
Position N 26°03' W 079°58'.

Type: Passenger vessel. MMSI: 310384000.

Date/timePositionNaut miles runAvg speedWind from/ knotsBaromVisibWave heightAir tempDewpointWater temp
2020-Apr-01 23:00N 26°03' W 079°58'510.2
2020-Apr-01 22:30N 26°04' W 080°03'4 4.0
2020-Apr-01 21:30N 26°06' W 080°07'0 1.1
2020-Apr-01 21:28N 26°06' W 080°07'0 0.1
2020-Apr-01 21:00N 26°06' W 080°07'0 0.0
2020-Apr-01 18:27N 26°06' W 080°07'0 0.0
2020-Apr-01 18:00N 26°06' W 080°07'0 0.0
2020-Apr-01 17:00N 26°06' W 080°07'0 0.0
2020-Apr-01 16:27N 26°06' W 080°07'23 3.9
2020-Apr-01 10:30N 25°48' W 079°51'2911.7
2020-Apr-01 08:00N 25°19' W 079°48'63 2.2
2020-Mar-31 03:21N 26°06' W 079°02'  
2020-Mar-28 12:30N 26°44' W 079°29'5 8.4
2020-Mar-28 11:58N 26°48' W 079°30'6 8.3
2020-Mar-28 11:14N 26°54' W 079°31'22 8.1
2020-Mar-28 08:30N 27°16' W 079°32'17 8.3
2020-Mar-28 06:30N 27°33' W 079°27'6 9.6
2020-Mar-28 05:50N 27°38' W 079°23'85 5.2
2020-Mar-27 13:25N 26°13' W 079°16'14 0.5
2020-Mar-26 10:57N 26°06' W 079°03'0 0.0
2020-Mar-26 09:45N 26°06' W 079°03'0 0.0
2020-Mar-26 09:27N 26°06' W 079°03'  

Dump ship's entire track history